sim
Sign-in with your pilot id or email,
or register
Callsign
Passwort

Schedule Details

Flight Number: EWG1834 (2)
Departure: Munich Airport (EDDM) at 18:40
Arrival: Amsterdam Schiphol Airport (EHAM) at 20:05
Route: Eurowings Passenger Schedule. Enter filed route here before submitting Pirep.

Weather Information
Getting current METAR information for EDDM 190550Z VRB01KT CAVOK 05/04 Q1020 NOSIG
Getting current METAR information for EHAM 190555Z 06010KT CAVOK 10/06 Q1019 NOSIG

Schedule Frequency

Route Map